sensor_id;sensor_type;location;lat;lon;timestamp;pressure;altitude;pressure_sealevel;temperature;humidity
50696;BME280;36665;51.786;21.594;2023-10-31T00:01:07;94244.39;;;10.70;80.63
50696;BME280;36665;51.786;21.594;2023-10-31T00:09:35;94256.31;;;10.73;80.67
50696;BME280;36665;51.786;21.594;2023-10-31T00:17:58;94250.65;;;10.71;80.67
50696;BME280;36665;51.786;21.594;2023-10-31T00:26:22;94243.21;;;10.69;80.68
50696;BME280;36665;51.786;21.594;2023-10-31T00:34:50;94238.66;;;10.68;80.53
50696;BME280;36665;51.786;21.594;2023-10-31T00:43:14;94235.98;;;10.67;80.73
50696;BME280;36665;51.786;21.594;2023-10-31T00:51:38;94230.80;;;10.66;80.61
50696;BME280;36665;51.786;21.594;2023-10-31T01:00:02;94241.51;;;10.68;80.45
50696;BME280;36665;51.786;21.594;2023-10-31T01:08:28;94245.24;;;10.68;80.69
50696;BME280;36665;51.786;21.594;2023-10-31T01:16:53;94246.36;;;10.69;80.59
50696;BME280;36665;51.786;21.594;2023-10-31T01:25:17;94244.63;;;10.69;80.58
50696;BME280;36665;51.786;21.594;2023-10-31T01:33:40;94244.67;;;10.69;80.66
50696;BME280;36665;51.786;21.594;2023-10-31T01:42:06;94256.81;;;10.72;80.67
50696;BME280;36665;51.786;21.594;2023-10-31T01:50:30;94285.05;;;10.79;80.72
50696;BME280;36665;51.786;21.594;2023-10-31T01:58:54;94306.17;;;10.84;80.63
50696;BME280;36665;51.786;21.594;2023-10-31T02:07:17;94326.89;;;10.90;80.91
50696;BME280;36665;51.786;21.594;2023-10-31T02:15:45;94351.98;;;10.96;80.67
50696;BME280;36665;51.786;21.594;2023-10-31T02:24:10;94386.77;;;11.04;80.71
50696;BME280;36665;51.786;21.594;2023-10-31T02:32:37;94412.67;;;11.11;80.83
50696;BME280;36665;51.786;21.594;2023-10-31T02:41:04;94457.80;;;11.22;80.94
50696;BME280;36665;51.786;21.594;2023-10-31T02:49:29;94512.03;;;11.36;80.82
50696;BME280;36665;51.786;21.594;2023-10-31T02:57:55;94556.45;;;11.47;81.01
50696;BME280;36665;51.786;21.594;2023-10-31T03:06:26;94588.92;;;11.55;81.06
50696;BME280;36665;51.786;21.594;2023-10-31T03:14:50;94616.35;;;11.61;81.27
50696;BME280;36665;51.786;21.594;2023-10-31T03:23:15;94647.50;;;11.68;81.10
50696;BME280;36665;51.786;21.594;2023-10-31T03:31:39;94672.66;;;11.75;81.04
50696;BME280;36665;51.786;21.594;2023-10-31T03:40:09;94686.54;;;11.80;81.22
50696;BME280;36665;51.786;21.594;2023-10-31T03:48:43;94704.92;;;11.83;81.11
50696;BME280;36665;51.786;21.594;2023-10-31T03:57:09;94724.56;;;11.88;81.11
50696;BME280;36665;51.786;21.594;2023-10-31T04:05:36;94752.52;;;11.95;81.08
50696;BME280;36665;51.786;21.594;2023-10-31T04:14:01;94774.69;;;12.01;81.24
50696;BME280;36665;51.786;21.594;2023-10-31T04:22:26;94798.52;;;12.07;81.27
50696;BME280;36665;51.786;21.594;2023-10-31T04:30:50;94822.83;;;12.12;81.23
50696;BME280;36665;51.786;21.594;2023-10-31T04:39:15;94844.82;;;12.17;81.34
50696;BME280;36665;51.786;21.594;2023-10-31T04:47:41;94871.48;;;12.24;81.57
50696;BME280;36665;51.786;21.594;2023-10-31T04:56:11;94916.61;;;12.35;81.61
50696;BME280;36665;51.786;21.594;2023-10-31T05:04:43;94985.40;;;12.52;81.27
50696;BME280;36665;51.786;21.594;2023-10-31T05:13:11;95047.91;;;12.67;81.29
50696;BME280;36665;51.786;21.594;2023-10-31T05:21:35;95091.58;;;12.78;81.59
50696;BME280;36665;51.786;21.594;2023-10-31T05:30:01;95138.45;;;12.89;81.64
50696;BME280;36665;51.786;21.594;2023-10-31T05:38:25;95175.70;;;12.98;81.65
50696;BME280;36665;51.786;21.594;2023-10-31T05:46:51;95209.77;;;13.07;81.51
50696;BME280;36665;51.786;21.594;2023-10-31T05:55:15;95255.29;;;13.17;81.46
50696;BME280;36665;51.786;21.594;2023-10-31T06:03:42;95295.02;;;13.27;81.42
50696;BME280;36665;51.786;21.594;2023-10-31T06:12:10;95328.27;;;13.35;81.65
50696;BME280;36665;51.786;21.594;2023-10-31T06:20:36;95346.40;;;13.38;81.72
50696;BME280;36665;51.786;21.594;2023-10-31T06:29:01;95319.80;;;13.33;81.63
50696;BME280;36665;51.786;21.594;2023-10-31T06:37:45;95309.44;;;13.30;81.62
50696;BME280;36665;51.786;21.594;2023-10-31T06:46:10;95320.98;;;13.33;81.56
50696;BME280;36665;51.786;21.594;2023-10-31T06:54:35;95338.36;;;13.38;81.57
50696;BME280;36665;51.786;21.594;2023-10-31T07:03:01;95362.83;;;13.44;81.88
50696;BME280;36665;51.786;21.594;2023-10-31T07:11:30;95358.02;;;13.42;81.57
50696;BME280;36665;51.786;21.594;2023-10-31T07:19:57;95350.41;;;13.40;81.62
50696;BME280;36665;51.786;21.594;2023-10-31T07:28:22;95330.52;;;13.35;81.61
50696;BME280;36665;51.786;21.594;2023-10-31T07:36:46;95294.18;;;13.27;81.57
50696;BME280;36665;51.786;21.594;2023-10-31T07:45:11;95262.46;;;13.19;81.54
50696;BME280;36665;51.786;21.594;2023-10-31T07:53:36;95239.89;;;13.15;81.31
50696;BME280;36665;51.786;21.594;2023-10-31T08:01:59;95224.55;;;13.12;81.29
50696;BME280;36665;51.786;21.594;2023-10-31T08:10:24;95222.57;;;13.11;81.24
50696;BME280;36665;51.786;21.594;2023-10-31T08:18:49;95230.78;;;13.13;81.37
50696;BME280;36665;51.786;21.594;2023-10-31T08:27:14;95228.92;;;13.13;81.16
50696;BME280;36665;51.786;21.594;2023-10-31T08:35:41;95228.88;;;13.13;81.32
50696;BME280;36665;51.786;21.594;2023-10-31T08:44:07;95233.98;;;13.14;81.44
50696;BME280;36665;51.786;21.594;2023-10-31T08:52:39;95216.59;;;13.10;81.37
50696;BME280;36665;51.786;21.594;2023-10-31T09:01:03;95200.45;;;13.06;81.19
50696;BME280;36665;51.786;21.594;2023-10-31T09:09:27;95190.45;;;13.04;81.32
50696;BME280;36665;51.786;21.594;2023-10-31T09:17:51;95191.07;;;13.04;81.27
50696;BME280;36665;51.786;21.594;2023-10-31T09:26:16;95203.27;;;13.07;81.32
50696;BME280;36665;51.786;21.594;2023-10-31T09:34:42;95221.55;;;13.11;81.28
50696;BME280;36665;51.786;21.594;2023-10-31T09:43:05;95242.51;;;13.16;81.27
50696;BME280;36665;51.786;21.594;2023-10-31T09:51:29;95262.80;;;13.22;81.27
50696;BME280;36665;51.786;21.594;2023-10-31T09:59:54;95290.41;;;13.28;81.25
50696;BME280;36665;51.786;21.594;2023-10-31T10:08:22;95329.25;;;13.37;81.29
50696;BME280;36665;51.786;21.594;2023-10-31T10:16:49;95378.80;;;13.50;81.32
50696;BME280;36665;51.786;21.594;2023-10-31T10:25:32;95457.98;;;13.69;81.09
50696;BME280;36665;51.786;21.594;2023-10-31T10:34:06;95554.32;;;13.92;81.25
50696;BME280;36665;51.786;21.594;2023-10-31T10:59:46;95870.46;;;14.69;81.20
50696;BME280;36665;51.786;21.594;2023-10-31T11:08:14;95973.66;;;14.94;81.46
50696;BME280;36665;51.786;21.594;2023-10-31T11:16:52;96074.61;;;15.17;81.41
50696;BME280;36665;51.786;21.594;2023-10-31T11:25:22;96215.54;;;15.51;81.35
50696;BME280;36665;51.786;21.594;2023-10-31T11:34:06;96367.16;;;15.86;81.42
50696;BME280;36665;51.786;21.594;2023-10-31T11:42:32;96423.74;;;15.99;81.47
50696;BME280;36665;51.786;21.594;2023-10-31T11:50:58;96505.31;;;16.18;81.49
50696;BME280;36665;51.786;21.594;2023-10-31T12:12:31;96642.38;;;16.54;81.57
50696;BME280;36665;51.786;21.594;2023-10-31T12:21:01;96741.38;;;16.75;81.41
50696;BME280;36665;51.786;21.594;2023-10-31T12:29:25;96760.83;;;16.79;81.54
50696;BME280;36665;51.786;21.594;2023-10-31T12:37:55;96750.52;;;16.77;81.41
50696;BME280;36665;51.786;21.594;2023-10-31T12:46:32;96753.38;;;16.78;81.51
50696;BME280;36665;51.786;21.594;2023-10-31T12:54:57;96754.99;;;16.79;81.37
50696;BME280;36665;51.786;21.594;2023-10-31T13:03:26;96741.54;;;16.76;81.44
50696;BME280;36665;51.786;21.594;2023-10-31T13:11:51;96726.86;;;16.73;81.36
50696;BME280;36665;51.786;21.594;2023-10-31T13:20:20;96733.38;;;16.74;81.16
50696;BME280;36665;51.786;21.594;2023-10-31T13:28:45;96695.98;;;16.66;81.20
50696;BME280;36665;51.786;21.594;2023-10-31T13:37:09;96577.83;;;16.38;80.97
50696;BME280;36665;51.786;21.594;2023-10-31T13:45:33;96466.52;;;16.11;81.04
50696;BME280;36665;51.786;21.594;2023-10-31T13:54:00;96394.09;;;15.94;80.94
50696;BME280;36665;51.786;21.594;2023-10-31T14:02:27;96330.82;;;15.81;80.84
50696;BME280;36665;51.786;21.594;2023-10-31T14:10:52;96270.96;;;15.66;80.80
50696;BME280;36665;51.786;21.594;2023-10-31T14:19:17;96214.39;;;15.53;80.94
50696;BME280;36665;51.786;21.594;2023-10-31T14:27:42;96161.98;;;15.43;80.65
50696;BME280;36665;51.786;21.594;2023-10-31T14:36:08;96123.98;;;15.33;80.57
50696;BME280;36665;51.786;21.594;2023-10-31T14:44:36;96073.59;;;15.21;80.47
50696;BME280;36665;51.786;21.594;2023-10-31T14:53:05;96018.73;;;15.08;80.32
50696;BME280;36665;51.786;21.594;2023-10-31T15:01:31;95968.33;;;14.97;80.42
50696;BME280;36665;51.786;21.594;2023-10-31T15:09:56;95898.37;;;14.80;80.37
50696;BME280;36665;51.786;21.594;2023-10-31T15:18:20;95818.75;;;14.61;80.23
50696;BME280;36665;51.786;21.594;2023-10-31T15:26:47;95764.91;;;14.48;80.27
50696;BME280;36665;51.786;21.594;2023-10-31T15:35:12;95729.29;;;14.40;80.42
50696;BME280;36665;51.786;21.594;2023-10-31T15:43:35;95713.83;;;14.36;80.45
50696;BME280;36665;51.786;21.594;2023-10-31T15:52:02;95718.09;;;14.37;80.27
50696;BME280;36665;51.786;21.594;2023-10-31T16:00:27;95704.99;;;14.34;80.02
50696;BME280;36665;51.786;21.594;2023-10-31T16:08:50;95665.06;;;14.25;80.11
50696;BME280;36665;51.786;21.594;2023-10-31T16:17:14;95625.00;;;14.15;80.19
50696;BME280;36665;51.786;21.594;2023-10-31T16:25:41;95616.33;;;14.13;80.15
50696;BME280;36665;51.786;21.594;2023-10-31T16:34:06;95613.26;;;14.13;79.96
50696;BME280;36665;51.786;21.594;2023-10-31T16:42:30;95569.92;;;14.03;79.99
50696;BME280;36665;51.786;21.594;2023-10-31T16:50:58;95502.91;;;13.86;79.76
50696;BME280;36665;51.786;21.594;2023-10-31T16:59:23;95438.14;;;13.71;79.89
50696;BME280;36665;51.786;21.594;2023-10-31T17:07:48;95385.00;;;13.58;80.13
50696;BME280;36665;51.786;21.594;2023-10-31T17:16:13;95328.09;;;13.44;79.95
50696;BME280;36665;51.786;21.594;2023-10-31T17:24:39;95285.98;;;13.34;79.77
50696;BME280;36665;51.786;21.594;2023-10-31T17:33:03;95245.73;;;13.24;79.86
50696;BME280;36665;51.786;21.594;2023-10-31T17:41:30;95210.77;;;13.17;79.64
50696;BME280;36665;51.786;21.594;2023-10-31T17:49:57;95188.53;;;13.11;79.61
50696;BME280;36665;51.786;21.594;2023-10-31T17:58:22;95129.79;;;12.97;79.32
50696;BME280;36665;51.786;21.594;2023-10-31T18:06:50;95087.84;;;12.87;79.49
50696;BME280;36665;51.786;21.594;2023-10-31T18:15:16;95058.66;;;12.80;79.43
50696;BME280;36665;51.786;21.594;2023-10-31T18:23:45;95014.34;;;12.69;79.29
50696;BME280;36665;51.786;21.594;2023-10-31T18:32:11;94974.00;;;12.59;79.37
50696;BME280;36665;51.786;21.594;2023-10-31T18:40:38;94924.50;;;12.47;79.46
50696;BME280;36665;51.786;21.594;2023-10-31T18:49:03;94901.83;;;12.42;79.45
50696;BME280;36665;51.786;21.594;2023-10-31T18:57:27;94875.87;;;12.36;79.20
50696;BME280;36665;51.786;21.594;2023-10-31T19:05:54;94841.70;;;12.28;79.38
50696;BME280;36665;51.786;21.594;2023-10-31T19:14:20;94797.69;;;12.16;79.33
50696;BME280;36665;51.786;21.594;2023-10-31T19:22:43;94752.46;;;12.05;79.11
50696;BME280;36665;51.786;21.594;2023-10-31T19:31:09;94712.59;;;11.96;79.19
50696;BME280;36665;51.786;21.594;2023-10-31T19:39:36;94677.32;;;11.86;79.24
50696;BME280;36665;51.786;21.594;2023-10-31T19:48:01;94637.10;;;11.76;79.11
50696;BME280;36665;51.786;21.594;2023-10-31T19:56:28;94607.91;;;11.69;78.95
50696;BME280;36665;51.786;21.594;2023-10-31T20:04:56;94583.63;;;11.62;79.18
50696;BME280;36665;51.786;21.594;2023-10-31T20:13:20;94545.77;;;11.54;79.14
50696;BME280;36665;51.786;21.594;2023-10-31T20:21:48;94493.78;;;11.41;79.00
50696;BME280;36665;51.786;21.594;2023-10-31T20:30:21;94436.91;;;11.26;79.23
50696;BME280;36665;51.786;21.594;2023-10-31T20:38:46;94398.99;;;11.16;79.17
50696;BME280;36665;51.786;21.594;2023-10-31T20:47:10;94374.98;;;11.11;79.11
50696;BME280;36665;51.786;21.594;2023-10-31T20:55:36;94353.13;;;11.06;79.12
50696;BME280;36665;51.786;21.594;2023-10-31T21:04:04;94335.46;;;11.01;78.91
50696;BME280;36665;51.786;21.594;2023-10-31T21:12:30;94309.00;;;10.94;78.92
50696;BME280;36665;51.786;21.594;2023-10-31T21:20:59;94276.22;;;10.86;78.95
50696;BME280;36665;51.786;21.594;2023-10-31T21:29:26;94259.14;;;10.81;78.94
50696;BME280;36665;51.786;21.594;2023-10-31T21:37:51;94239.67;;;10.77;79.17
50696;BME280;36665;51.786;21.594;2023-10-31T21:46:16;94218.93;;;10.71;79.31
50696;BME280;36665;51.786;21.594;2023-10-31T21:54:42;94199.77;;;10.67;79.19
50696;BME280;36665;51.786;21.594;2023-10-31T22:03:06;94181.52;;;10.63;79.07
50696;BME280;36665;51.786;21.594;2023-10-31T22:11:32;94155.05;;;10.56;79.05
50696;BME280;36665;51.786;21.594;2023-10-31T22:19:57;94109.98;;;10.45;79.26
50696;BME280;36665;51.786;21.594;2023-10-31T22:28:28;94080.45;;;10.37;78.92
50696;BME280;36665;51.786;21.594;2023-10-31T22:36:52;94048.40;;;10.29;79.23
50696;BME280;36665;51.786;21.594;2023-10-31T22:45:18;93998.22;;;10.17;79.12
50696;BME280;36665;51.786;21.594;2023-10-31T22:53:45;93949.47;;;10.05;78.87
50696;BME280;36665;51.786;21.594;2023-10-31T23:02:09;93934.12;;;10.00;78.94
50696;BME280;36665;51.786;21.594;2023-10-31T23:10:37;93928.80;;;9.99;78.83
50696;BME280;36665;51.786;21.594;2023-10-31T23:19:04;93914.77;;;9.95;78.89
50696;BME280;36665;51.786;21.594;2023-10-31T23:27:31;93888.44;;;9.89;78.86
50696;BME280;36665;51.786;21.594;2023-10-31T23:35:57;93862.42;;;9.83;78.88
50696;BME280;36665;51.786;21.594;2023-10-31T23:44:24;93827.09;;;9.74;78.89
50696;BME280;36665;51.786;21.594;2023-10-31T23:52:48;93790.31;;;9.64;78.82
